Time;durP1;ratioP1;P1;durP2;ratioP2;P2;SDS_P1;SDS_P2;PMS_P1;PMS_P2;Temp;Humidity;BMP_temperature;BMP_pressure;BME280_temperature;BME280_humidity;BME280_pressure;Samples;Min_cycle;Max_cycle;Signal;HPM_P1;HPM_P2
2024/01/16 00:00:03;;;;;;;25.83;22.77;;;;;;;;;;5080692;27;20351;-74
2024/01/16 00:02:28;;;;;;;19.63;17.52;;;;;;;;;;5084840;27;20416;-75
2024/01/16 00:04:53;;;;;;;33.90;30.33;;;;;;;;;;5076173;27;20443;-74
2024/01/16 00:07:19;;;;;;;56.20;48.17;;;;;;;;;;5079981;27;20034;-74
2024/01/16 00:09:45;;;;;;;66.32;54.42;;;;;;;;;;5079086;27;20027;-73
2024/01/16 00:12:10;;;;;;;34.90;28.75;;;;;;;;;;5083324;27;20182;-74
2024/01/16 00:14:36;;;;;;;48.00;41.17;;;;;;;;;;5103008;27;20032;-74
2024/01/16 00:17:02;;;;;;;106.55;77.78;;;;;;;;;;5077157;27;20458;-75
2024/01/16 00:19:27;;;;;;;156.85;114.65;;;;;;;;;;5084041;27;20450;-76
2024/01/16 00:21:53;;;;;;;106.35;75.38;;;;;;;;;;5081456;27;20074;-74
2024/01/16 00:24:18;;;;;;;81.53;63.85;;;;;;;;;;5081156;27;20042;-74
2024/01/16 00:26:43;;;;;;;81.40;67.38;;;;;;;;;;5078077;28;20387;-74
2024/01/16 00:29:09;;;;;;;69.25;59.05;;;;;;;;;;5078703;27;20450;-74
2024/01/16 00:31:34;;;;;;;43.33;38.60;;;;;;;;;;5103457;27;20070;-74
2024/01/16 00:34:00;;;;;;;42.17;36.15;;;;;;;;;;5081461;27;20031;-75
2024/01/16 00:36:25;;;;;;;54.70;38.72;;;;;;;;;;5082986;27;20062;-75
2024/01/16 00:38:51;;;;;;;82.20;53.30;;;;;;;;;;5089768;27;20051;-77
2024/01/16 00:41:16;;;;;;;38.88;28.23;;;;;;;;;;5082952;27;20032;-75
2024/01/16 00:43:43;;;;;;;69.60;43.58;;;;;;;;;;5082078;27;20570;-74
2024/01/16 00:46:08;;;;;;;128.13;72.18;;;;;;;;;;5083687;27;20034;-74
2024/01/16 00:48:34;;;;;;;89.88;50.22;;;;;;;;;;5083878;27;20028;-74
2024/01/16 00:50:59;;;;;;;50.47;34.50;;;;;;;;;;5084697;27;20027;-74
2024/01/16 00:53:26;;;;;;;42.38;31.15;;;;;;;;;;5104684;27;20378;-73
2024/01/16 00:55:52;;;;;;;37.67;25.90;;;;;;;;;;5080701;27;20058;-74
2024/01/16 00:58:17;;;;;;;87.90;49.28;;;;;;;;;;5078900;27;20039;-75
2024/01/16 01:00:42;;;;;;;106.82;56.13;;;;;;;;;;5078114;27;20311;-73
2024/01/16 01:03:08;;;;;;;46.80;34.60;;;;;;;;;;5083457;27;20365;-73
2024/01/16 01:05:33;;;;;;;26.77;23.17;;;;;;;;;;5083705;27;20110;-73
2024/01/16 01:07:58;;;;;;;18.05;16.20;;;;;;;;;;5082762;27;20019;-73
2024/01/16 01:10:24;;;;;;;53.50;31.58;;;;;;;;;;5079356;27;20358;-73
2024/01/16 01:12:51;;;;;;;30.42;19.77;;;;;;;;;;5083337;27;20457;-77
2024/01/16 01:15:17;;;;;;;25.30;18.38;;;;;;;;;;5079133;27;20032;-74
2024/01/16 01:17:42;;;;;;;20.73;15.48;;;;;;;;;;5080009;27;20784;-73
2024/01/16 01:20:08;;;;;;;40.00;25.60;;;;;;;;;;5101970;27;21094;-74
2024/01/16 01:22:33;;;;;;;36.30;22.02;;;;;;;;;;5096680;27;20031;-77
2024/01/16 01:24:59;;;;;;;52.88;30.65;;;;;;;;;;5118180;27;20023;-75
2024/01/16 01:27:24;;;;;;;48.88;26.13;;;;;;;;;;5119668;27;20011;-74
2024/01/16 01:29:49;;;;;;;55.47;26.35;;;;;;;;;;5120582;27;20038;-74
2024/01/16 01:32:15;;;;;;;54.20;24.60;;;;;;;;;;5116491;27;20039;-74
2024/01/16 01:34:43;;;;;;;25.77;16.27;;;;;;;;;;5100223;27;20019;-74
2024/01/16 01:37:09;;;;;;;8.15;7.32;;;;;;;;;;5100614;27;20046;-74
2024/01/16 01:39:34;;;;;;;7.10;6.45;;;;;;;;;;5102263;27;20436;-76
2024/01/16 01:41:59;;;;;;;21.38;19.05;;;;;;;;;;5117425;27;20066;-76
2024/01/16 01:44:25;;;;;;;27.85;25.05;;;;;;;;;;5115959;27;20023;-75
2024/01/16 01:46:51;;;;;;;30.55;27.45;;;;;;;;;;5099490;27;20027;-75
2024/01/16 01:49:16;;;;;;;33.83;30.30;;;;;;;;;;5080041;28;20127;-74
2024/01/16 01:51:42;;;;;;;20.83;18.73;;;;;;;;;;5096357;27;20023;-74
2024/01/16 01:54:07;;;;;;;25.70;19.15;;;;;;;;;;5093670;27;20020;-75
2024/01/16 01:56:33;;;;;;;43.20;29.35;;;;;;;;;;5090694;27;20033;-74
2024/01/16 01:58:59;;;;;;;51.50;35.30;;;;;;;;;;5117951;27;20019;-74
2024/01/16 02:01:25;;;;;;;50.30;34.22;;;;;;;;;;5114451;27;20076;-75
2024/01/16 02:03:52;;;;;;;34.80;25.10;;;;;;;;;;5095591;27;20039;-76
2024/01/16 02:06:17;;;;;;;51.80;29.38;;;;;;;;;;5089752;27;20023;-74
2024/01/16 02:08:43;;;;;;;29.77;21.05;;;;;;;;;;5107258;27;20027;-76
2024/01/16 02:11:09;;;;;;;56.45;32.08;;;;;;;;;;5087774;27;20062;-74
2024/01/16 02:13:35;;;;;;;43.47;23.80;;;;;;;;;;5116983;27;20019;-74
2024/01/16 02:16:00;;;;;;;29.88;20.20;;;;;;;;;;5095906;27;20026;-75
2024/01/16 02:18:26;;;;;;;48.80;31.30;;;;;;;;;;5118195;27;20015;-74
2024/01/16 02:20:52;;;;;;;48.92;30.95;;;;;;;;;;5099819;27;20345;-76
2024/01/16 02:23:23;;;;;;;66.95;38.53;;;;;;;;;;5097337;27;20067;-74
2024/01/16 02:25:49;;;;;;;66.50;44.38;;;;;;;;;;5100445;27;20015;-76
2024/01/16 02:28:14;;;;;;;26.67;18.73;;;;;;;;;;5098907;27;20836;-75
2024/01/16 02:30:42;;;;;;;19.23;14.00;;;;;;;;;;5117968;27;20027;-77
2024/01/16 02:33:08;;;;;;;27.55;21.20;;;;;;;;;;5093107;28;20092;-74
2024/01/16 02:35:33;;;;;;;29.25;25.55;;;;;;;;;;5116366;27;20023;-73
2024/01/16 02:38:00;;;;;;;34.08;29.38;;;;;;;;;;5101207;28;20026;-73
2024/01/16 02:40:25;;;;;;;30.63;27.27;;;;;;;;;;5081888;28;20015;-75
2024/01/16 02:42:51;;;;;;;24.60;16.75;;;;;;;;;;5097752;28;20484;-73
2024/01/16 02:45:17;;;;;;;25.83;18.15;;;;;;;;;;5085499;28;20533;-75
2024/01/16 02:47:42;;;;;;;7.68;6.47;;;;;;;;;;5100495;28;20345;-74
2024/01/16 02:50:09;;;;;;;8.07;7.18;;;;;;;;;;5093680;28;20030;-74
2024/01/16 02:52:35;;;;;;;8.23;7.43;;;;;;;;;;5096044;28;20319;-73
2024/01/16 02:55:00;;;;;;;19.92;17.48;;;;;;;;;;5107738;28;20141;-75
2024/01/16 02:57:26;;;;;;;24.88;18.35;;;;;;;;;;5086209;28;21217;-74
2024/01/16 02:59:51;;;;;;;20.23;17.63;;;;;;;;;;5100072;28;20054;-74
2024/01/16 03:02:16;;;;;;;16.77;13.63;;;;;;;;;;5112775;28;20039;-76
2024/01/16 03:04:42;;;;;;;25.02;20.98;;;;;;;;;;5088198;28;20106;-74
2024/01/16 03:07:07;;;;;;;9.40;8.55;;;;;;;;;;5099152;28;20433;-75
2024/01/16 03:09:33;;;;;;;8.05;6.78;;;;;;;;;;5112863;28;20022;-74
2024/01/16 03:11:58;;;;;;;5.28;4.88;;;;;;;;;;5094867;28;20130;-75
2024/01/16 03:14:24;;;;;;;5.25;4.68;;;;;;;;;;5111020;28;20052;-74
2024/01/16 03:16:49;;;;;;;11.23;10.13;;;;;;;;;;5109909;28;20323;-75
2024/01/16 03:19:14;;;;;;;12.63;11.38;;;;;;;;;;5097785;28;20053;-78
2024/01/16 03:21:41;;;;;;;11.40;10.20;;;;;;;;;;5086650;28;20437;-74
2024/01/16 03:24:06;;;;;;;14.32;12.90;;;;;;;;;;5106860;28;20436;-75
2024/01/16 03:26:32;;;;;;;23.63;21.15;;;;;;;;;;5098346;28;20047;-75
2024/01/16 03:28:57;;;;;;;25.05;22.35;;;;;;;;;;5116350;28;20069;-75
2024/01/16 03:31:23;;;;;;;22.35;19.98;;;;;;;;;;5102462;28;20058;-75
2024/01/16 03:33:49;;;;;;;18.95;17.05;;;;;;;;;;5100326;28;20027;-76
2024/01/16 03:36:15;;;;;;;11.20;10.10;;;;;;;;;;5099941;28;20063;-75
2024/01/16 03:38:41;;;;;;;6.20;5.70;;;;;;;;;;5116279;28;20075;-75
2024/01/16 03:41:07;;;;;;;8.48;7.78;;;;;;;;;;5120175;28;20031;-74
2024/01/16 03:43:34;;;;;;;7.22;5.45;;;;;;;;;;5117610;27;20027;-75
2024/01/16 03:45:59;;;;;;;13.00;11.80;;;;;;;;;;5119941;27;20025;-76
2024/01/16 03:48:25;;;;;;;4.18;3.78;;;;;;;;;;5092904;27;20114;-75
2024/01/16 03:50:51;;;;;;;6.45;5.85;;;;;;;;;;5085406;27;20051;-74
2024/01/16 03:53:16;;;;;;;5.70;5.22;;;;;;;;;;5090993;27;20042;-74
2024/01/16 03:55:41;;;;;;;6.38;5.78;;;;;;;;;;5104308;27;20027;-75
2024/01/16 03:58:07;;;;;;;7.40;6.70;;;;;;;;;;5121618;27;20018;-74
2024/01/16 04:00:32;;;;;;;7.45;6.75;;;;;;;;;;5117702;27;20015;-75
2024/01/16 04:02:58;;;;;;;8.70;7.80;;;;;;;;;;5121292;27;20038;-76
2024/01/16 04:05:23;;;;;;;10.77;9.00;;;;;;;;;;5099783;27;20517;-75
2024/01/16 04:07:49;;;;;;;10.70;8.30;;;;;;;;;;5121701;27;20035;-76
2024/01/16 04:10:14;;;;;;;11.73;8.80;;;;;;;;;;5090944;28;20356;-76
2024/01/16 04:12:39;;;;;;;10.45;7.88;;;;;;;;;;5078793;28;20028;-72
2024/01/16 04:15:05;;;;;;;11.43;9.10;;;;;;;;;;5077290;28;20024;-75
2024/01/16 04:17:30;;;;;;;14.52;10.82;;;;;;;;;;5079605;28;20024;-74
2024/01/16 04:19:56;;;;;;;14.10;11.52;;;;;;;;;;5077522;28;20031;-73
2024/01/16 04:22:21;;;;;;;17.63;14.48;;;;;;;;;;5071367;28;20032;-74
2024/01/16 04:24:47;;;;;;;13.15;11.85;;;;;;;;;;5076214;28;20029;-73
2024/01/16 04:27:13;;;;;;;5.13;4.63;;;;;;;;;;5078565;28;20055;-73
2024/01/16 04:29:38;;;;;;;6.25;5.50;;;;;;;;;;5079166;28;20016;-75
2024/01/16 04:32:04;;;;;;;5.03;4.50;;;;;;;;;;5078311;28;20746;-74
2024/01/16 04:34:29;;;;;;;9.10;8.18;;;;;;;;;;5077131;28;20049;-73
2024/01/16 04:36:54;;;;;;;10.43;9.32;;;;;;;;;;5079706;28;20087;-75
2024/01/16 04:39:22;;;;;;;10.93;8.85;;;;;;;;;;5081327;28;20055;-75
2024/01/16 04:41:48;;;;;;;5.40;4.95;;;;;;;;;;5075659;28;20023;-74
2024/01/16 04:44:13;;;;;;;5.50;5.00;;;;;;;;;;5067609;28;20020;-74
2024/01/16 04:46:38;;;;;;;5.03;4.05;;;;;;;;;;5074510;28;20100;-77
2024/01/16 04:49:04;;;;;;;5.28;4.78;;;;;;;;;;5066486;28;20028;-75
2024/01/16 04:51:29;;;;;;;6.20;5.60;;;;;;;;;;5065712;28;20471;-75
2024/01/16 04:53:54;;;;;;;6.88;6.20;;;;;;;;;;5065601;28;20061;-76
2024/01/16 04:56:20;;;;;;;5.30;4.82;;;;;;;;;;5065746;28;20459;-76
2024/01/16 04:58:46;;;;;;;7.85;7.05;;;;;;;;;;5076590;28;20089;-75
2024/01/16 05:01:12;;;;;;;8.52;7.72;;;;;;;;;;5073740;28;20713;-76
2024/01/16 05:03:38;;;;;;;11.63;10.23;;;;;;;;;;5066900;28;20031;-75
2024/01/16 05:06:03;;;;;;;9.15;8.35;;;;;;;;;;5065515;28;20078;-76
2024/01/16 05:08:28;;;;;;;11.70;10.60;;;;;;;;;;5075465;28;20139;-75
2024/01/16 05:10:54;;;;;;;19.75;17.88;;;;;;;;;;5097689;27;20131;-76
2024/01/16 05:13:19;;;;;;;28.40;25.25;;;;;;;;;;5102596;27;20087;-75
2024/01/16 05:15:45;;;;;;;29.65;25.48;;;;;;;;;;5097370;27;20107;-78
2024/01/16 05:18:10;;;;;;;22.75;19.67;;;;;;;;;;5078162;27;20051;-77
2024/01/16 05:20:36;;;;;;;21.88;19.67;;;;;;;;;;5119082;27;20019;-77
2024/01/16 05:23:01;;;;;;;25.50;22.73;;;;;;;;;;5108968;27;20389;-78
2024/01/16 05:25:26;;;;;;;28.48;24.23;;;;;;;;;;5107869;27;20566;-78
2024/01/16 05:27:52;;;;;;;20.92;16.65;;;;;;;;;;5099498;27;20089;-78
2024/01/16 05:30:17;;;;;;;21.90;17.90;;;;;;;;;;5100468;27;20024;-77
2024/01/16 05:32:42;;;;;;;51.58;30.27;;;;;;;;;;5080240;27;20442;-76
2024/01/16 05:35:09;;;;;;;30.88;18.80;;;;;;;;;;5096906;27;20087;-76
2024/01/16 05:37:35;;;;;;;32.42;21.02;;;;;;;;;;5085063;27;20023;-77
2024/01/16 05:40:02;;;;;;;35.83;24.60;;;;;;;;;;5099234;27;20030;-77
2024/01/16 05:42:29;;;;;;;33.33;24.88;;;;;;;;;;5108885;27;20040;-78
2024/01/16 05:44:54;;;;;;;37.25;28.20;;;;;;;;;;5115002;27;20405;-76
2024/01/16 05:47:19;;;;;;;17.48;15.63;;;;;;;;;;5097885;27;20027;-76
2024/01/16 05:49:45;;;;;;;13.35;12.15;;;;;;;;;;5117266;27;20027;-77
2024/01/16 05:52:10;;;;;;;12.27;11.27;;;;;;;;;;5117885;27;20023;-77
2024/01/16 05:54:36;;;;;;;19.75;17.88;;;;;;;;;;5114745;27;20027;-77
2024/01/16 05:57:02;;;;;;;12.65;11.65;;;;;;;;;;5118651;27;20125;-76
2024/01/16 05:59:27;;;;;;;9.95;9.18;;;;;;;;;;5117054;27;20026;-77
2024/01/16 06:01:53;;;;;;;25.48;23.17;;;;;;;;;;5117238;27;20020;-76
2024/01/16 06:04:19;;;;;;;22.80;20.52;;;;;;;;;;5120400;27;20352;-76
2024/01/16 06:06:45;;;;;;;21.92;19.40;;;;;;;;;;5092847;27;20019;-78
2024/01/16 06:09:13;;;;;;;37.33;29.02;;;;;;;;;;5106411;27;20102;-76
2024/01/16 06:11:40;;;;;;;27.02;24.20;;;;;;;;;;5117925;27;20450;-75
2024/01/16 06:14:07;;;;;;;36.22;32.28;;;;;;;;;;5117573;27;20535;-74
2024/01/16 06:16:33;;;;;;;28.88;25.88;;;;;;;;;;5117066;27;20027;-75
2024/01/16 06:18:58;;;;;;;21.17;19.00;;;;;;;;;;5115720;27;20080;-76
2024/01/16 06:21:24;;;;;;;19.90;17.95;;;;;;;;;;5119238;27;20073;-76
2024/01/16 06:23:49;;;;;;;25.42;22.75;;;;;;;;;;5119917;27;20034;-75
2024/01/16 06:26:15;;;;;;;29.50;26.30;;;;;;;;;;5119703;27;20452;-78
2024/01/16 06:28:42;;;;;;;26.63;23.77;;;;;;;;;;5120476;27;20453;-78
2024/01/16 06:31:08;;;;;;;24.10;21.50;;;;;;;;;;5118811;27;20022;-76
2024/01/16 06:33:33;;;;;;;23.05;19.20;;;;;;;;;;5117487;27;20035;-77
2024/01/16 06:35:58;;;;;;;13.10;11.52;;;;;;;;;;5118565;27;20434;-77
2024/01/16 06:38:24;;;;;;;17.15;14.98;;;;;;;;;;5117540;27;20051;-76
2024/01/16 06:40:49;;;;;;;21.75;18.13;;;;;;;;;;5112048;27;20049;-76
2024/01/16 06:43:15;;;;;;;13.82;12.40;;;;;;;;;;5118808;28;20027;-77
2024/01/16 06:45:42;;;;;;;52.55;35.97;;;;;;;;;;5117201;28;20027;-76
2024/01/16 06:48:07;;;;;;;15.20;13.70;;;;;;;;;;5118300;28;20051;-77
2024/01/16 06:50:33;;;;;;;31.48;25.40;;;;;;;;;;5114735;28;20112;-76
2024/01/16 06:52:58;;;;;;;25.50;22.75;;;;;;;;;;5090440;28;20457;-76
2024/01/16 06:55:23;;;;;;;29.52;25.52;;;;;;;;;;5099122;28;20027;-77
2024/01/16 06:57:49;;;;;;;32.90;29.40;;;;;;;;;;5113935;28;20456;-75
2024/01/16 07:00:14;;;;;;;27.77;24.88;;;;;;;;;;5118531;28;20465;-74
2024/01/16 07:02:43;;;;;;;19.45;17.55;;;;;;;;;;5099807;28;20116;-75
2024/01/16 07:05:09;;;;;;;18.33;16.58;;;;;;;;;;5104785;28;20035;-75
2024/01/16 07:07:34;;;;;;;21.85;19.75;;;;;;;;;;5116128;28;20023;-76
2024/01/16 07:09:59;;;;;;;16.50;14.80;;;;;;;;;;5115524;28;20066;-76
2024/01/16 07:12:25;;;;;;;16.00;14.45;;;;;;;;;;5118773;28;20023;-77
2024/01/16 07:14:50;;;;;;;15.32;13.93;;;;;;;;;;5118317;28;20527;-77
2024/01/16 07:17:16;;;;;;;8.60;7.80;;;;;;;;;;5115006;28;20104;-77
2024/01/16 07:19:41;;;;;;;12.93;11.30;;;;;;;;;;5121482;27;20385;-76
2024/01/16 07:22:06;;;;;;;56.33;46.95;;;;;;;;;;5122051;27;20452;-76
2024/01/16 07:24:32;;;;;;;23.75;21.17;;;;;;;;;;5121279;27;20033;-75
2024/01/16 07:26:58;;;;;;;117.75;104.68;;;;;;;;;;5115896;27;20438;-76
2024/01/16 07:29:23;;;;;;;93.72;83.50;;;;;;;;;;5117456;27;20034;-75
2024/01/16 07:31:48;;;;;;;138.90;126.35;;;;;;;;;;5121502;27;20031;-76
2024/01/16 07:34:19;;;;;;;47.25;42.92;;;;;;;;;;5121099;27;20437;-76
2024/01/16 07:36:45;;;;;;;42.40;38.00;;;;;;;;;;5122135;27;20058;-76
2024/01/16 07:39:10;;;;;;;27.20;24.30;;;;;;;;;;5121196;27;20039;-78
2024/01/16 07:41:35;;;;;;;32.50;28.98;;;;;;;;;;5115566;27;20041;-76
2024/01/16 07:44:01;;;;;;;27.90;24.95;;;;;;;;;;5113807;27;20031;-78
2024/01/16 07:46:26;;;;;;;18.48;16.88;;;;;;;;;;5122922;27;20527;-78
2024/01/16 07:48:51;;;;;;;22.23;19.85;;;;;;;;;;5118085;27;20449;-77
2024/01/16 07:51:17;;;;;;;44.05;39.55;;;;;;;;;;5119100;27;20034;-77
2024/01/16 07:53:42;;;;;;;56.10;50.10;;;;;;;;;;5095233;27;20123;-77
2024/01/16 07:56:09;;;;;;;35.42;32.03;;;;;;;;;;5122138;27;20319;-75
2024/01/16 07:58:34;;;;;;;45.47;41.05;;;;;;;;;;5121252;27;20027;-77
2024/01/16 08:00:59;;;;;;;29.88;27.38;;;;;;;;;;5104413;27;20027;-76
2024/01/16 08:03:25;;;;;;;21.95;20.00;;;;;;;;;;5120401;27;20707;-77
2024/01/16 08:05:51;;;;;;;58.67;52.30;;;;;;;;;;5120300;27;20792;-76
2024/01/16 08:08:16;;;;;;;41.90;37.63;;;;;;;;;;5120456;27;20027;-76
2024/01/16 08:10:42;;;;;;;53.88;48.15;;;;;;;;;;5121216;27;20057;-75
2024/01/16 08:13:07;;;;;;;28.05;25.15;;;;;;;;;;5121679;27;20027;-75
2024/01/16 08:15:34;;;;;;;9.10;8.25;;;;;;;;;;5100980;27;20034;-76
2024/01/16 08:18:00;;;;;;;69.63;58.10;;;;;;;;;;5117226;27;20023;-76
2024/01/16 08:20:25;;;;;;;61.17;54.80;;;;;;;;;;5115962;27;20060;-77
2024/01/16 08:22:50;;;;;;;38.55;34.47;;;;;;;;;;5099804;27;20537;-76
2024/01/16 08:25:16;;;;;;;24.83;22.38;;;;;;;;;;5121626;27;20027;-75
2024/01/16 08:27:43;;;;;;;23.85;21.50;;;;;;;;;;5120259;27;20027;-77
2024/01/16 08:30:08;;;;;;;64.85;57.47;;;;;;;;;;5100677;28;20492;-76
2024/01/16 08:32:34;;;;;;;71.30;62.20;;;;;;;;;;5107725;27;20027;-75
2024/01/16 08:34:59;;;;;;;82.10;70.10;;;;;;;;;;5113150;27;20041;-77
2024/01/16 08:37:25;;;;;;;52.40;45.17;;;;;;;;;;5120224;27;20475;-77
2024/01/16 08:39:50;;;;;;;43.83;39.08;;;;;;;;;;5116832;27;20091;-77
2024/01/16 08:42:17;;;;;;;84.32;71.10;;;;;;;;;;5104752;27;20034;-78
2024/01/16 08:44:42;;;;;;;172.10;149.60;;;;;;;;;;5117759;27;20504;-76
2024/01/16 08:47:09;;;;;;;77.18;68.88;;;;;;;;;;5120546;27;20019;-77
2024/01/16 08:49:35;;;;;;;30.63;27.38;;;;;;;;;;5119819;27;20109;-77
2024/01/16 08:52:00;;;;;;;25.45;22.98;;;;;;;;;;5119489;27;20513;-77
2024/01/16 08:54:26;;;;;;;375.67;307.58;;;;;;;;;;5118950;27;20035;-76
2024/01/16 08:56:54;;;;;;;73.70;65.60;;;;;;;;;;5121214;27;20595;-78
2024/01/16 08:59:19;;;;;;;14.35;12.90;;;;;;;;;;5118054;27;20415;-77
2024/01/16 09:01:45;;;;;;;20.20;16.95;;;;;;;;;;5120324;27;20059;-78
2024/01/16 09:04:11;;;;;;;26.15;22.38;;;;;;;;;;5119842;27;21085;-77
2024/01/16 09:06:37;;;;;;;71.57;56.15;;;;;;;;;;5118574;27;20055;-77
2024/01/16 09:09:04;;;;;;;33.33;26.88;;;;;;;;;;5117685;27;20057;-78
2024/01/16 09:11:29;;;;;;;18.73;16.73;;;;;;;;;;5118832;27;20104;-79
2024/01/16 09:13:55;;;;;;;16.52;14.93;;;;;;;;;;5113735;27;20027;-78
2024/01/16 09:16:20;;;;;;;11.93;10.82;;;;;;;;;;5112628;27;20630;-77
2024/01/16 09:18:46;;;;;;;54.45;43.58;;;;;;;;;;5109437;27;20035;-78
2024/01/16 09:21:11;;;;;;;35.50;31.20;;;;;;;;;;5116853;27;20015;-76
2024/01/16 09:23:37;;;;;;;53.22;44.80;;;;;;;;;;5122011;27;20034;-78
2024/01/16 09:26:02;;;;;;;22.95;18.60;;;;;;;;;;5119418;27;20061;-75
2024/01/16 09:28:28;;;;;;;10.63;9.63;;;;;;;;;;5118982;27;20098;-77
2024/01/16 09:30:55;;;;;;;14.55;12.80;;;;;;;;;;5122380;27;20122;-76
2024/01/16 09:33:22;;;;;;;51.05;35.90;;;;;;;;;;5121784;27;20027;-76
2024/01/16 09:35:47;;;;;;;14.38;12.50;;;;;;;;;;5118292;27;20019;-74
2024/01/16 09:38:13;;;;;;;7.50;6.80;;;;;;;;;;5119961;27;20345;-75
2024/01/16 09:40:38;;;;;;;7.40;6.68;;;;;;;;;;5121758;27;20019;-75
2024/01/16 09:43:04;;;;;;;13.93;12.48;;;;;;;;;;5116812;27;20027;-77
2024/01/16 09:45:30;;;;;;;49.45;36.10;;;;;;;;;;5118941;27;20027;-79
2024/01/16 09:47:56;;;;;;;54.53;43.03;;;;;;;;;;5114874;27;21070;-77
2024/01/16 09:50:22;;;;;;;22.67;20.42;;;;;;;;;;5116644;27;20048;-75
2024/01/16 09:52:47;;;;;;;11.65;10.63;;;;;;;;;;5118228;27;20023;-76
2024/01/16 09:55:13;;;;;;;9.45;8.57;;;;;;;;;;5116267;27;20331;-76
2024/01/16 09:57:42;;;;;;;21.55;19.23;;;;;;;;;;5119234;27;20444;-76
2024/01/16 10:00:13;;;;;;;61.95;55.30;;;;;;;;;;5119522;27;20030;-76
2024/01/16 10:02:40;;;;;;;29.00;26.17;;;;;;;;;;5119464;27;20019;-76
2024/01/16 10:05:08;;;;;;;14.77;13.40;;;;;;;;;;5114483;27;20099;-77
2024/01/16 10:07:34;;;;;;;7.45;6.80;;;;;;;;;;5112892;27;20030;-76
2024/01/16 10:10:00;;;;;;;10.57;9.48;;;;;;;;;;5114607;27;20437;-76
2024/01/16 10:12:25;;;;;;;12.07;10.80;;;;;;;;;;5120410;27;20034;-77
2024/01/16 10:14:51;;;;;;;11.25;10.18;;;;;;;;;;5114293;27;20079;-75
2024/01/16 10:17:18;;;;;;;14.30;9.43;;;;;;;;;;5114856;27;20027;-76
2024/01/16 10:19:54;;;;;;;25.00;19.75;;;;;;;;;;5117834;27;20068;-76
2024/01/16 10:22:21;;;;;;;22.92;20.38;;;;;;;;;;5094842;27;20019;-76
2024/01/16 10:24:47;;;;;;;12.27;11.18;;;;;;;;;;5085343;27;20081;-76
2024/01/16 10:27:15;;;;;;;12.90;11.65;;;;;;;;;;5114108;27;20023;-78
2024/01/16 10:29:54;;;;;;;32.88;29.27;;;;;;;;;;5119344;27;20430;-75
2024/01/16 10:32:31;;;;;;;17.67;15.80;;;;;;;;;;5117651;27;20007;-76
2024/01/16 10:35:04;;;;;;;12.30;11.10;;;;;;;;;;5117033;27;20035;-76
2024/01/16 10:37:30;;;;;;;21.35;19.02;;;;;;;;;;5114464;27;20426;-75
2024/01/16 10:39:56;;;;;;;12.63;11.32;;;;;;;;;;5118975;27;20063;-77
2024/01/16 10:42:21;;;;;;;32.78;27.48;;;;;;;;;;5119618;27;20072;-76
2024/01/16 10:44:54;;;;;;;11.00;9.90;;;;;;;;;;5085452;28;20031;-79
2024/01/16 10:47:21;;;;;;;17.65;15.85;;;;;;;;;;5099714;28;20039;-76
2024/01/16 10:49:46;;;;;;;29.00;24.85;;;;;;;;;;5098580;28;20027;-77
2024/01/16 10:52:12;;;;;;;26.33;21.83;;;;;;;;;;5097906;28;20019;-75
2024/01/16 10:54:41;;;;;;;25.60;22.08;;;;;;;;;;5099563;27;20031;-76
2024/01/16 10:57:06;;;;;;;28.25;25.30;;;;;;;;;;5085565;27;20038;-76
2024/01/16 10:59:34;;;;;;;16.80;15.07;;;;;;;;;;5103862;27;20023;-75
2024/01/16 11:02:01;;;;;;;12.15;10.85;;;;;;;;;;5102567;27;20027;-76
2024/01/16 11:04:28;;;;;;;17.67;15.88;;;;;;;;;;5106354;27;20040;-75
2024/01/16 11:06:54;;;;;;;14.80;13.30;;;;;;;;;;5101070;27;20019;-75
2024/01/16 11:09:20;;;;;;;22.88;20.48;;;;;;;;;;5104194;27;20046;-76
2024/01/16 11:11:46;;;;;;;23.80;21.55;;;;;;;;;;5105085;27;20051;-76
2024/01/16 11:14:13;;;;;;;21.88;19.90;;;;;;;;;;5106187;27;20030;-74
2024/01/16 11:16:39;;;;;;;12.48;10.65;;;;;;;;;;5106953;27;20030;-75
2024/01/16 11:19:06;;;;;;;16.98;15.27;;;;;;;;;;5109563;27;20024;-76
2024/01/16 11:21:31;;;;;;;26.50;23.70;;;;;;;;;;5104117;27;20042;-75
2024/01/16 11:23:56;;;;;;;24.98;22.25;;;;;;;;;;5102219;27;20035;-74
2024/01/16 11:26:31;;;;;;;23.58;20.80;;;;;;;;;;5103272;27;20732;-75
2024/01/16 11:28:58;;;;;;;20.17;17.50;;;;;;;;;;5103499;27;20051;-77
2024/01/16 11:31:34;;;;;;;31.00;27.70;;;;;;;;;;5115594;27;20122;-76
2024/01/16 11:34:00;;;;;;;23.27;21.05;;;;;;;;;;5108366;27;20460;-76
2024/01/16 11:36:44;;;;;;;14.20;12.80;;;;;;;;;;5105146;27;20122;-77
2024/01/16 11:39:17;;;;;;;18.98;17.08;;;;;;;;;;5110174;27;20024;-76
2024/01/16 11:41:52;;;;;;;31.05;26.50;;;;;;;;;;5113586;27;20025;-79
2024/01/16 11:44:37;;;;;;;13.60;12.30;;;;;;;;;;5119004;27;20346;-81
2024/01/16 11:47:05;;;;;;;23.27;20.88;;;;;;;;;;5112790;27;20111;-76
2024/01/16 11:49:34;;;;;;;44.92;38.20;;;;;;;;;;5106714;27;20042;-77
2024/01/16 11:51:59;;;;;;;57.30;46.15;;;;;;;;;;5104042;27;20035;-79
2024/01/16 11:54:25;;;;;;;47.88;38.03;;;;;;;;;;5103411;27;20041;-78
2024/01/16 11:57:04;;;;;;;31.25;27.85;;;;;;;;;;5104802;27;20019;-78
2024/01/16 11:59:35;;;;;;;44.70;40.00;;;;;;;;;;5103204;27;20023;-79
2024/01/16 12:02:02;;;;;;;20.60;18.60;;;;;;;;;;5102258;27;20059;-79
2024/01/16 12:04:27;;;;;;;13.85;12.57;;;;;;;;;;5114054;27;20458;-80
2024/01/16 12:06:59;;;;;;;13.77;12.48;;;;;;;;;;5118526;27;20027;-78
2024/01/16 12:09:28;;;;;;;14.77;13.27;;;;;;;;;;5111229;27;20102;-79
2024/01/16 12:12:01;;;;;;;15.03;13.53;;;;;;;;;;5111063;27;20069;-79
2024/01/16 12:14:26;;;;;;;11.57;10.55;;;;;;;;;;5114960;27;20023;-76
2024/01/16 12:16:51;;;;;;;20.58;18.48;;;;;;;;;;5102782;27;20122;-77
2024/01/16 12:19:17;;;;;;;21.55;19.35;;;;;;;;;;5103746;27;20084;-77
2024/01/16 12:21:43;;;;;;;19.08;17.08;;;;;;;;;;5116361;27;20012;-78
2024/01/16 12:24:10;;;;;;;19.38;17.30;;;;;;;;;;5120534;27;20368;-78
2024/01/16 12:26:35;;;;;;;14.00;12.60;;;;;;;;;;5116719;27;20029;-74
2024/01/16 12:29:00;;;;;;;17.38;14.00;;;;;;;;;;5118717;27;20117;-73
2024/01/16 12:31:27;;;;;;;18.33;16.25;;;;;;;;;;5103321;27;20085;-76
2024/01/16 12:33:52;;;;;;;45.63;38.60;;;;;;;;;;5117328;27;20031;-76
2024/01/16 12:36:17;;;;;;;24.35;21.85;;;;;;;;;;5115100;27;20022;-75
2024/01/16 12:38:43;;;;;;;44.13;39.30;;;;;;;;;;5114679;27;20031;-79
2024/01/16 12:41:09;;;;;;;20.98;18.88;;;;;;;;;;5119052;27;20487;-75
2024/01/16 12:43:36;;;;;;;7.90;7.20;;;;;;;;;;5100113;27;20030;-76
2024/01/16 12:46:02;;;;;;;28.08;24.00;;;;;;;;;;5112978;27;20019;-75
2024/01/16 12:48:27;;;;;;;21.73;19.48;;;;;;;;;;5102572;27;20597;-76
2024/01/16 12:51:03;;;;;;;24.52;22.25;;;;;;;;;;5109408;27;20035;-78
2024/01/16 12:53:28;;;;;;;20.45;18.65;;;;;;;;;;5111712;27;20035;-80
2024/01/16 12:56:00;;;;;;;13.25;12.18;;;;;;;;;;5102593;27;20477;-79
2024/01/16 12:58:31;;;;;;;17.38;15.80;;;;;;;;;;5120745;27;20019;-77
2024/01/16 13:00:56;;;;;;;19.02;17.25;;;;;;;;;;5122747;27;20046;-79
2024/01/16 13:03:26;;;;;;;19.50;17.73;;;;;;;;;;5120636;27;20442;-78
2024/01/16 13:05:55;;;;;;;50.50;45.10;;;;;;;;;;5118070;27;20046;-81
2024/01/16 13:08:21;;;;;;;28.58;26.08;;;;;;;;;;5125397;27;20080;-79
2024/01/16 13:10:47;;;;;;;21.35;19.15;;;;;;;;;;5123114;27;20047;-79
2024/01/16 13:13:13;;;;;;;20.40;18.70;;;;;;;;;;5122102;27;20036;-79
2024/01/16 13:15:39;;;;;;;13.68;12.52;;;;;;;;;;5118210;27;20669;-78
2024/01/16 13:18:05;;;;;;;18.73;17.13;;;;;;;;;;5108617;27;20035;-77
2024/01/16 13:20:31;;;;;;;14.05;12.85;;;;;;;;;;5107754;27;20023;-79
2024/01/16 13:22:58;;;;;;;16.35;15.05;;;;;;;;;;5114339;27;20023;-79
2024/01/16 13:25:23;;;;;;;18.17;16.77;;;;;;;;;;5107240;27;20085;-79
2024/01/16 13:27:51;;;;;;;11.13;10.32;;;;;;;;;;5105734;27;20054;-79
2024/01/16 13:30:17;;;;;;;15.40;14.10;;;;;;;;;;5101590;27;20398;-77
2024/01/16 13:32:42;;;;;;;29.58;26.95;;;;;;;;;;5111287;27;20126;-79
2024/01/16 13:35:09;;;;;;;22.88;20.92;;;;;;;;;;5115668;27;20026;-82
2024/01/16 13:37:40;;;;;;;13.23;12.27;;;;;;;;;;5115757;27;20028;-80
2024/01/16 13:40:15;;;;;;;14.82;13.63;;;;;;;;;;5091613;28;20023;-78
2024/01/16 13:42:41;;;;;;;27.63;25.23;;;;;;;;;;5105252;27;20427;-80
2024/01/16 13:45:08;;;;;;;8.25;7.47;;;;;;;;;;5092079;27;20085;-78
2024/01/16 13:47:39;;;;;;;14.77;13.35;;;;;;;;;;5109503;27;20023;-80
2024/01/16 13:50:06;;;;;;;24.83;22.33;;;;;;;;;;5101654;27;20030;-80
2024/01/16 13:52:31;;;;;;;18.77;17.08;;;;;;;;;;5107059;27;20033;-79
2024/01/16 13:55:02;;;;;;;23.75;21.55;;;;;;;;;;5091615;27;20474;-80
2024/01/16 13:57:29;;;;;;;16.30;14.80;;;;;;;;;;5104886;27;20022;-79
2024/01/16 13:59:55;;;;;;;10.23;9.32;;;;;;;;;;5099068;27;20050;-80
2024/01/16 14:02:20;;;;;;;14.77;13.38;;;;;;;;;;5083483;27;20437;-75
2024/01/16 14:04:45;;;;;;;15.18;13.70;;;;;;;;;;5100254;27;20469;-75
2024/01/16 14:07:11;;;;;;;18.42;16.52;;;;;;;;;;5100874;27;20019;-73
2024/01/16 14:09:36;;;;;;;28.42;25.70;;;;;;;;;;5100283;27;20023;-74
2024/01/16 14:12:02;;;;;;;14.10;12.88;;;;;;;;;;5097686;27;20443;-72
2024/01/16 14:14:27;;;;;;;13.88;12.77;;;;;;;;;;5109724;27;20034;-73